Time;durP1;ratioP1;P1;durP2;ratioP2;P2;SDS_P1;SDS_P2;PMS_P1;PMS_P2;Temp;Humidity;BMP_temperature;BMP_pressure;BME280_temperature;BME280_humidity;BME280_pressure;Samples;Min_cycle;Max_cycle;Signal;HPM_P1;HPM_P2
2022/04/09 04:00:21;;;;;;;9.70;8.90;;;3.20;99.90;;;;;;5990655;23;20378;-63
2022/04/09 04:02:48;;;;;;;10.40;9.37;;;3.20;99.90;;;;;;4958302;29;20464;-63
2022/04/09 04:05:15;;;;;;;9.13;8.33;;;3.30;99.90;;;;;;4959166;29;20462;-63
2022/04/09 04:07:44;;;;;;;11.00;9.90;;;3.30;99.90;;;;;;4959015;29;20448;-63
2022/04/09 04:10:12;;;;;;;10.60;9.63;;;3.30;99.90;;;;;;4959181;28;20538;-63
2022/04/09 04:12:40;;;;;;;10.23;9.23;;;3.30;99.90;;;;;;4958923;29;20974;-64
2022/04/09 04:15:08;;;;;;;10.80;9.80;;;3.30;99.90;;;;;;4958433;29;20463;-62
2022/04/09 04:17:43;;;;;;;12.43;10.20;;;3.30;99.90;;;;;;4958201;28;20488;-63
2022/04/09 04:20:11;;;;;;;11.87;10.67;;;3.20;99.90;;;;;;4958505;28;20455;-65
2022/04/09 04:22:38;;;;;;;11.80;10.73;;;3.20;99.90;;;;;;4958406;28;20459;-63
2022/04/09 04:25:05;;;;;;;13.87;11.90;;;3.20;99.90;;;;;;4958085;28;20459;-63
2022/04/09 04:27:32;;;;;;;15.20;12.73;;;3.20;99.90;;;;;;4957928;28;20463;-65
2022/04/09 04:30:00;;;;;;;14.30;12.90;;;3.10;99.90;;;;;;4958128;28;20451;-63
2022/04/09 04:32:27;;;;;;;13.63;12.33;;;3.10;99.90;;;;;;4957792;28;20479;-63
2022/04/09 04:34:55;;;;;;;15.70;14.00;;;3.00;99.90;;;;;;4957644;28;20463;-65
2022/04/09 04:37:22;;;;;;;15.27;13.67;;;3.10;99.90;;;;;;4957757;28;20452;-63
2022/04/09 04:39:49;;;;;;;13.83;12.43;;;3.10;99.90;;;;;;4957728;28;20538;-63
2022/04/09 04:42:15;;;;;;;20.90;12.83;;;3.00;99.90;;;;;;4957699;28;20482;-63
2022/04/09 04:44:42;;;;;;;15.43;13.83;;;3.00;99.90;;;;;;4957578;28;20629;-63
2022/04/09 04:47:09;;;;;;;17.03;14.20;;;3.10;99.90;;;;;;4957482;28;20463;-63
2022/04/09 04:49:35;;;;;;;17.70;13.67;;;3.00;99.90;;;;;;4957545;28;20550;-63
2022/04/09 04:52:06;;;;;;;15.43;13.87;;;3.00;99.90;;;;;;4957081;28;20490;-63
2022/04/09 04:54:33;;;;;;;18.87;13.20;;;3.00;99.90;;;;;;4957373;28;20451;-63
2022/04/09 04:56:59;;;;;;;16.87;13.83;;;3.00;99.90;;;;;;4957230;28;20459;-63
2022/04/09 04:59:26;;;;;;;14.83;13.33;;;3.00;99.90;;;;;;4957698;28;20463;-63
2022/04/09 05:01:53;;;;;;;17.83;15.13;;;3.00;99.90;;;;;;4957663;28;20498;-63
2022/04/09 05:04:19;;;;;;;19.90;13.77;;;3.00;99.90;;;;;;4957868;28;20467;-63
2022/04/09 05:06:46;;;;;;;19.13;14.40;;;3.10;99.90;;;;;;4957470;28;20466;-63
2022/04/09 05:09:14;;;;;;;16.60;13.97;;;3.00;99.90;;;;;;4958087;28;20456;-63
2022/04/09 05:11:41;;;;;;;17.97;15.10;;;3.10;99.90;;;;;;4957648;28;20491;-63
2022/04/09 05:14:08;;;;;;;16.30;14.40;;;3.10;99.90;;;;;;4957769;28;20460;-63
2022/04/09 05:16:34;;;;;;;16.10;14.43;;;3.10;99.90;;;;;;4957506;28;20468;-63
2022/04/09 05:19:01;;;;;;;16.13;14.50;;;3.10;99.90;;;;;;4957665;28;20486;-64
2022/04/09 05:21:28;;;;;;;17.30;15.10;;;3.20;99.90;;;;;;4957664;28;20476;-63
2022/04/09 05:23:55;;;;;;;18.10;15.30;;;3.20;99.90;;;;;;4957623;28;20942;-65
2022/04/09 05:26:23;;;;;;;16.00;14.40;;;3.30;99.90;;;;;;4957737;28;20803;-63
2022/04/09 05:28:53;;;;;;;17.77;14.13;;;3.30;99.90;;;;;;4957511;28;20463;-65
2022/04/09 05:31:20;;;;;;;16.30;13.77;;;3.30;99.90;;;;;;4957450;28;20494;-64
2022/04/09 05:33:47;;;;;;;15.00;13.40;;;3.40;99.90;;;;;;4956790;28;20511;-63
2022/04/09 05:36:13;;;;;;;16.60;14.97;;;3.50;99.90;;;;;;4956468;28;20550;-64
2022/04/09 05:38:40;;;;;;;17.20;15.70;;;3.50;99.90;;;;;;4956699;28;20459;-64
2022/04/09 05:41:07;;;;;;;15.57;14.07;;;3.60;99.90;;;;;;4956753;28;20478;-64
2022/04/09 05:43:35;;;;;;;16.37;14.23;;;3.70;99.90;;;;;;4956611;28;20471;-65
2022/04/09 05:46:01;;;;;;;16.83;15.20;;;3.70;99.90;;;;;;4956958;28;20463;-65
2022/04/09 05:48:28;;;;;;;15.90;14.50;;;3.80;99.90;;;;;;4957377;28;20460;-64
2022/04/09 05:50:55;;;;;;;16.13;14.43;;;3.90;99.90;;;;;;4956955;28;20480;-64
2022/04/09 05:53:21;;;;;;;15.10;13.70;;;3.90;99.90;;;;;;4956950;28;20788;-63
2022/04/09 05:55:48;;;;;;;14.73;13.33;;;4.00;99.90;;;;;;4956814;28;20484;-65
2022/04/09 05:58:15;;;;;;;15.77;14.10;;;4.10;99.90;;;;;;4956889;28;20464;-65
2022/04/09 06:00:43;;;;;;;15.80;14.50;;;4.30;99.90;;;;;;4956511;28;20566;-64
2022/04/09 06:03:10;;;;;;;15.23;13.33;;;4.60;99.90;;;;;;4956103;28;20912;-63
2022/04/09 06:05:37;;;;;;;13.27;11.63;;;4.90;99.90;;;;;;4956653;28;20815;-63
2022/04/09 06:08:04;;;;;;;12.40;11.20;;;5.20;99.90;;;;;;4956604;28;20456;-64
2022/04/09 06:10:32;;;;;;;13.30;11.20;;;5.60;99.90;;;;;;4957185;28;20892;-63
2022/04/09 06:12:59;;;;;;;11.93;10.70;;;5.90;99.90;;;;;;4957104;28;20510;-63
2022/04/09 06:15:25;;;;;;;11.23;10.23;;;6.20;99.90;;;;;;4956010;28;20456;-63
2022/04/09 06:17:53;;;;;;;10.53;9.30;;;6.40;99.90;;;;;;4956012;28;20463;-63
2022/04/09 06:20:20;;;;;;;10.70;9.47;;;6.70;99.90;;;;;;4955858;28;20456;-63
2022/04/09 06:22:47;;;;;;;9.87;8.87;;;6.90;99.90;;;;;;4955544;29;20943;-63
2022/04/09 06:25:13;;;;;;;10.00;8.80;;;7.20;99.90;;;;;;4955836;29;20483;-63
2022/04/09 06:27:41;;;;;;;8.70;8.00;;;7.40;99.90;;;;;;4955785;29;20507;-63
2022/04/09 06:30:09;;;;;;;11.17;10.13;;;7.70;99.90;;;;;;4955750;29;20550;-63
2022/04/09 06:32:36;;;;;;;9.57;8.77;;;8.00;99.90;;;;;;4955754;28;20480;-63
2022/04/09 06:35:05;;;;;;;10.10;9.00;;;8.20;99.90;;;;;;4955745;29;20456;-63
2022/04/09 06:37:32;;;;;;;9.03;8.07;;;8.50;99.90;;;;;;4955619;28;20491;-63
2022/04/09 06:40:00;;;;;;;8.60;7.73;;;8.70;99.90;;;;;;4955789;29;20460;-63
2022/04/09 06:42:27;;;;;;;8.80;8.20;;;8.90;99.90;;;;;;4955833;28;20475;-63
2022/04/09 06:44:54;;;;;;;10.60;9.50;;;9.00;99.90;;;;;;4956102;29;21023;-66
2022/04/09 06:47:21;;;;;;;9.60;8.80;;;9.00;99.90;;;;;;4955720;29;20487;-67
2022/04/09 06:49:47;;;;;;;10.53;9.63;;;9.00;99.90;;;;;;4955632;29;20514;-66
2022/04/09 06:52:16;;;;;;;9.33;8.33;;;9.00;99.90;;;;;;4955446;28;20574;-67
2022/04/09 06:54:43;;;;;;;9.73;8.83;;;9.20;99.90;;;;;;4955447;29;20455;-66
2022/04/09 06:57:10;;;;;;;9.43;8.03;;;9.50;99.90;;;;;;4956044;28;20809;-66
2022/04/09 06:59:37;;;;;;;7.70;6.90;;;10.00;99.90;;;;;;4959192;29;20462;-67
2022/04/09 07:02:04;;;;;;;8.20;7.50;;;10.50;99.90;;;;;;4958805;28;20490;-68
2022/04/09 07:04:30;;;;;;;8.23;7.30;;;10.70;99.90;;;;;;4959258;29;20456;-69
2022/04/09 07:06:57;;;;;;;8.17;7.47;;;10.80;99.90;;;;;;4959125;29;20463;-69
2022/04/09 07:09:25;;;;;;;8.27;7.57;;;11.00;99.90;;;;;;4959270;29;20463;-68
2022/04/09 07:11:52;;;;;;;8.70;7.90;;;11.10;99.90;;;;;;4959651;28;20483;-69
2022/04/09 07:14:18;;;;;;;8.10;7.30;;;11.30;99.90;;;;;;4959466;29;20510;-69
2022/04/09 07:16:46;;;;;;;8.10;6.87;;;11.60;99.90;;;;;;4959140;29;20463;-69
2022/04/09 07:19:13;;;;;;;7.37;6.37;;;11.50;99.90;;;;;;4959040;28;20451;-69
2022/04/09 07:21:40;;;;;;;9.43;8.63;;;11.60;99.90;;;;;;4958860;28;21006;-69
2022/04/09 07:24:07;;;;;;;7.10;6.40;;;11.60;99.90;;;;;;4959008;29;20514;-69
2022/04/09 07:26:35;;;;;;;8.03;7.37;;;11.60;99.90;;;;;;4958705;29;20470;-69
2022/04/09 07:29:02;;;;;;;7.63;6.93;;;11.60;99.90;;;;;;4958514;29;20467;-69
2022/04/09 07:31:28;;;;;;;7.40;6.37;;;11.30;99.90;;;;;;4958607;28;20574;-69
2022/04/09 07:33:55;;;;;;;8.27;6.40;;;11.20;99.90;;;;;;4958934;29;20452;-69
2022/04/09 07:36:22;;;;;;;11.33;7.50;;;11.20;99.90;;;;;;4958390;29;20943;-69
2022/04/09 07:38:48;;;;;;;6.77;6.23;;;11.30;99.90;;;;;;4958728;29;20467;-70
2022/04/09 07:41:15;;;;;;;6.73;6.10;;;11.50;99.90;;;;;;4958440;28;20472;-69
2022/04/09 07:43:43;;;;;;;7.13;6.07;;;11.40;99.90;;;;;;4958280;29;20870;-69
2022/04/09 07:46:10;;;;;;;7.00;6.33;;;11.10;99.90;;;;;;4958728;29;20567;-69
2022/04/09 07:48:36;;;;;;;6.50;5.80;;;11.10;99.90;;;;;;4958858;29;20462;-71
2022/04/09 07:51:04;;;;;;;6.43;5.93;;;11.30;99.90;;;;;;4958447;28;21018;-69
2022/04/09 07:53:31;;;;;;;6.30;5.70;;;11.50;99.90;;;;;;4958472;29;20455;-69
2022/04/09 07:55:58;;;;;;;6.80;6.20;;;11.50;99.90;;;;;;4958014;29;20451;-69
2022/04/09 07:58:25;;;;;;;7.60;5.80;;;11.50;99.90;;;;;;4958571;28;20892;-69
2022/04/09 08:00:53;;;;;;;14.40;5.43;;;11.50;99.90;;;;;;4958141;28;20854;-69
2022/04/09 08:03:20;;;;;;;8.23;5.20;;;11.40;99.90;;;;;;4958242;28;20451;-69
2022/04/09 08:05:46;;;;;;;7.97;7.17;;;11.30;99.90;;;;;;4958188;29;20455;-70
2022/04/09 08:08:13;;;;;;;5.87;5.10;;;11.20;99.90;;;;;;4957889;28;20462;-69
2022/04/09 08:10:40;;;;;;;8.20;5.90;;;11.10;99.90;;;;;;4958105;28;20479;-67
2022/04/09 08:13:07;;;;;;;5.43;4.60;;;10.80;99.90;;;;;;4958162;29;20491;-67
2022/04/09 08:15:34;;;;;;;11.37;6.00;;;10.50;99.90;;;;;;4958315;29;20451;-68
2022/04/09 08:18:03;;;;;;;8.17;5.63;;;10.30;99.90;;;;;;4957957;29;20444;-69
2022/04/09 08:20:30;;;;;;;7.60;5.50;;;9.90;99.90;;;;;;4957877;28;20456;-69
2022/04/09 08:22:57;;;;;;;8.40;6.40;;;9.70;99.90;;;;;;4958071;28;20464;-69
2022/04/09 08:25:24;;;;;;;11.90;6.50;;;9.60;99.90;;;;;;4957990;29;20460;-68
2022/04/09 08:27:52;;;;;;;13.00;6.97;;;9.50;99.90;;;;;;4957830;29;20463;-68
2022/04/09 08:30:21;;;;;;;6.37;5.80;;;9.50;99.90;;;;;;4957842;28;20937;-69
2022/04/09 08:32:49;;;;;;;7.07;6.10;;;9.50;99.90;;;;;;4958401;28;20974;-68
2022/04/09 08:35:17;;;;;;;7.20;6.50;;;9.40;99.90;;;;;;4957751;29;20555;-68
2022/04/09 08:37:44;;;;;;;6.10;5.57;;;9.60;99.90;;;;;;4957227;29;20466;-68
2022/04/09 08:40:15;;;;;;;7.47;5.50;;;10.10;99.90;;;;;;4957571;29;20459;-69
2022/04/09 08:42:41;;;;;;;6.13;5.53;;;10.80;99.90;;;;;;4957745;29;20441;-68
2022/04/09 08:45:09;;;;;;;8.90;5.80;;;11.70;99.90;;;;;;4957620;29;20455;-68
2022/04/09 08:47:36;;;;;;;6.60;5.70;;;12.40;99.90;;;;;;4957152;29;20462;-69
2022/04/09 08:50:05;;;;;;;7.17;5.70;;;13.30;99.90;;;;;;4957512;29;20483;-69
2022/04/09 08:52:34;;;;;;;6.63;5.47;;;14.00;99.90;;;;;;4957337;28;20840;-69
2022/04/09 08:55:02;;;;;;;7.60;5.07;;;14.20;99.90;;;;;;4957160;29;20825;-69
2022/04/09 08:57:28;;;;;;;7.53;6.47;;;14.00;99.90;;;;;;4957385;29;20462;-69
2022/04/09 08:59:56;;;;;;;9.10;5.73;;;13.70;99.90;;;;;;4957222;29;20451;-67
2022/04/09 09:02:23;;;;;;;7.37;5.10;;;13.30;99.90;;;;;;4956998;28;20483;-67
2022/04/09 09:04:50;;;;;;;6.73;5.33;;;13.00;99.90;;;;;;4957385;29;20471;-67
2022/04/09 09:07:18;;;;;;;5.90;4.97;;;13.00;99.90;;;;;;4960857;29;20456;-66
2022/04/09 09:09:46;;;;;;;7.33;5.57;;;13.10;99.90;;;;;;4962692;28;20463;-67
2022/04/09 09:12:26;;;;;;;8.93;5.30;;;13.20;99.90;;;;;;4958864;28;20480;-69
2022/04/09 09:14:52;;;;;;;5.20;4.80;;;13.30;99.90;;;;;;4957093;29;20811;-69
2022/04/09 09:17:28;;;;;;;7.97;4.70;;;13.40;99.90;;;;;;4956579;29;20962;-69
2022/04/09 09:19:54;;;;;;;9.20;4.40;;;13.60;99.90;;;;;;4956424;28;20490;-69
2022/04/09 09:22:21;;;;;;;7.60;4.70;;;14.00;99.90;;;;;;4957721;28;20530;-69
2022/04/09 09:25:02;;;;;;;5.17;3.77;;;14.50;99.70;;;;;;4958210;29;20460;-69
2022/04/09 09:27:29;;;;;;;5.90;4.60;;;15.30;99.90;;;;;;4957866;29;20848;-70
2022/04/09 09:29:55;;;;;;;9.00;4.77;;;15.70;97.10;;;;;;4957492;29;20464;-69
2022/04/09 09:32:26;;;;;;;4.43;4.03;;;15.80;95.40;;;;;;4957262;28;20998;-69
2022/04/09 09:34:55;;;;;;;7.47;4.47;;;16.20;94.80;;;;;;4957433;28;20448;-70
2022/04/09 09:37:22;;;;;;;7.33;4.60;;;16.50;91.30;;;;;;4957263;28;20491;-70
2022/04/09 09:39:49;;;;;;;5.40;4.20;;;16.40;91.30;;;;;;4957250;29;20523;-69
2022/04/09 09:42:20;;;;;;;7.53;3.83;;;16.50;91.70;;;;;;4956794;28;20978;-70
2022/04/09 09:44:47;;;;;;;6.40;3.73;;;16.60;92.10;;;;;;4957007;29;20515;-69
2022/04/09 09:47:14;;;;;;;9.73;5.30;;;17.00;91.30;;;;;;4956459;29;20936;-70
2022/04/09 09:49:53;;;;;;;6.50;4.27;;;16.60;88.00;;;;;;4956776;28;20516;-69
2022/04/09 09:52:24;;;;;;;6.77;4.00;;;16.40;91.50;;;;;;4957481;28;20498;-69
2022/04/09 09:54:55;;;;;;;5.70;3.80;;;16.90;91.70;;;;;;4957731;29;20916;-70
2022/04/09 09:57:26;;;;;;;7.90;5.00;;;17.40;86.80;;;;;;4956609;29;20437;-70
2022/04/09 09:59:55;;;;;;;7.60;3.57;;;17.30;83.40;;;;;;4956221;29;20930;-70
2022/04/09 10:02:23;;;;;;;4.50;3.67;;;17.00;84.80;;;;;;4956256;28;20492;-70
2022/04/09 10:04:50;;;;;;;6.27;3.63;;;16.80;84.60;;;;;;4955939;29;20943;-70
2022/04/09 10:07:18;;;;;;;4.83;3.40;;;16.20;81.60;;;;;;4956357;29;20452;-69
2022/04/09 10:09:45;;;;;;;7.50;3.77;;;16.00;85.90;;;;;;4956256;29;20463;-70
2022/04/09 10:12:13;;;;;;;6.67;3.60;;;15.70;86.30;;;;;;4956431;28;20494;-69
2022/04/09 10:14:43;;;;;;;8.07;4.53;;;15.40;85.90;;;;;;4956286;29;20547;-69
2022/04/09 10:17:11;;;;;;;8.47;4.13;;;14.90;89.50;;;;;;4956169;28;20456;-69
2022/04/09 10:19:41;;;;;;;5.77;3.93;;;14.80;90.60;;;;;;4955992;29;20975;-69
2022/04/09 10:22:11;;;;;;;4.97;3.50;;;14.50;90.60;;;;;;4956290;28;20471;-69
2022/04/09 10:24:39;;;;;;;6.77;3.90;;;14.70;91.60;;;;;;4956032;29;20464;-70
2022/04/09 10:27:08;;;;;;;3.70;3.40;;;15.20;91.10;;;;;;4955885;29;20498;-69
2022/04/09 10:29:49;;;;;;;8.93;3.77;;;16.00;88.10;;;;;;4956059;29;20459;-69
2022/04/09 10:32:43;;;;;;;3.30;2.80;;;16.90;88.30;;;;;;4955770;28;20502;-70
2022/04/09 10:35:28;;;;;;;7.33;3.53;;;17.50;83.00;;;;;;4955539;28;20942;-69
2022/04/09 10:38:19;;;;;;;5.80;3.40;;;17.60;84.60;;;;;;4955741;29;20943;-69
2022/04/09 10:41:22;;;;;;;3.93;3.10;;;18.00;83.10;;;;;;4955473;28;20478;-70
2022/04/09 10:43:48;;;;;;;6.33;3.60;;;18.10;78.90;;;;;;4943292;28;20459;-69
2022/04/09 10:46:20;;;;;;;5.37;3.57;;;17.60;76.50;;;;;;4955983;29;20456;-69
2022/04/09 10:48:48;;;;;;;5.50;3.17;;;17.30;78.30;;;;;;4955772;29;20451;-69
2022/04/09 10:51:15;;;;;;;5.90;4.00;;;16.50;77.30;;;;;;4955973;28;20534;-68
2022/04/09 10:53:44;;;;;;;7.47;3.53;;;16.10;79.50;;;;;;4956866;29;20484;-69
2022/04/09 10:56:13;;;;;;;7.80;3.93;;;15.80;79.00;;;;;;4957552;29;20460;-69
2022/04/09 10:58:59;;;;;;;8.23;3.90;;;15.20;82.00;;;;;;4958607;29;20456;-69
2022/04/09 11:01:55;;;;;;;5.50;3.70;;;14.70;85.80;;;;;;4958325;28;20853;-69
2022/04/09 11:04:42;;;;;;;6.70;3.93;;;14.50;86.60;;;;;;4958763;28;20462;-69
2022/04/09 11:07:11;;;;;;;6.07;3.50;;;14.70;90.50;;;;;;4958310;28;20456;-69
2022/04/09 11:09:57;;;;;;;6.17;4.37;;;15.20;90.70;;;;;;4958294;29;20466;-69
2022/04/09 11:12:26;;;;;;;5.77;3.77;;;15.80;88.90;;;;;;4958454;28;20486;-69
2022/04/09 11:14:55;;;;;;;6.57;3.90;;;15.70;83.70;;;;;;4958429;29;20452;-69
2022/04/09 11:17:29;;;;;;;6.33;3.40;;;15.50;83.70;;;;;;4958489;29;20547;-69
2022/04/09 11:19:56;;;;;;;6.57;3.77;;;15.10;86.20;;;;;;4958185;29;20444;-69
2022/04/09 11:22:32;;;;;;;10.17;4.30;;;15.10;85.60;;;;;;4957807;28;20471;-68
2022/04/09 11:24:58;;;;;;;3.63;3.33;;;14.70;86.90;;;;;;4956968;29;20954;-68
2022/04/09 11:27:27;;;;;;;4.50;3.30;;;14.40;86.30;;;;;;4956965;29;20456;-69
2022/04/09 11:29:55;;;;;;;4.50;3.23;;;14.40;90.70;;;;;;4957445;29;20507;-70
2022/04/09 11:32:23;;;;;;;6.40;3.33;;;14.20;88.90;;;;;;4957735;28;20520;-70
2022/04/09 11:34:53;;;;;;;6.00;3.30;;;14.30;89.40;;;;;;4957038;29;20459;-69
2022/04/09 11:37:21;;;;;;;5.33;3.50;;;14.50;91.20;;;;;;4956939;29;20487;-70
2022/04/09 11:39:50;;;;;;;6.93;3.80;;;14.50;90.00;;;;;;4956435;29;20955;-70
2022/04/09 11:42:17;;;;;;;4.40;3.30;;;14.40;84.90;;;;;;4957073;28;20486;-70
2022/04/09 11:44:44;;;;;;;4.93;3.20;;;14.30;85.30;;;;;;4960004;29;20515;-70
2022/04/09 11:47:13;;;;;;;6.57;3.80;;;14.40;90.40;;;;;;4960260;29;20465;-69
2022/04/09 11:49:40;;;;;;;5.10;3.27;;;14.30;90.60;;;;;;4960505;29;20459;-70
2022/04/09 11:52:10;;;;;;;5.47;3.10;;;14.50;91.10;;;;;;4960043;28;20502;-69
2022/04/09 11:54:38;;;;;;;6.93;3.23;;;14.70;90.70;;;;;;4959628;29;20456;-69
2022/04/09 11:57:10;;;;;;;6.73;3.37;;;14.80;85.80;;;;;;4959866;29;20506;-70
2022/04/09 11:59:38;;;;;;;5.87;3.10;;;14.80;86.20;;;;;;4959772;29;20444;-70
2022/04/09 12:02:05;;;;;;;6.13;3.40;;;14.80;87.40;;;;;;4959289;28;21006;-70
2022/04/09 12:04:35;;;;;;;7.00;3.47;;;14.60;87.10;;;;;;4959932;29;20459;-70
2022/04/09 12:07:03;;;;;;;5.40;3.53;;;14.50;88.40;;;;;;4960168;29;20459;-70
2022/04/09 12:09:32;;;;;;;4.27;3.10;;;14.50;85.60;;;;;;4959210;29;20455;-68
2022/04/09 12:12:01;;;;;;;4.80;3.07;;;14.30;84.10;;;;;;4959466;28;20488;-70
2022/04/09 12:14:29;;;;;;;6.23;2.77;;;14.10;86.90;;;;;;4959409;29;20489;-69
2022/04/09 12:16:56;;;;;;;4.03;3.03;;;13.90;85.90;;;;;;4959074;29;20467;-70
2022/04/09 12:19:29;;;;;;;8.43;3.70;;;14.00;86.90;;;;;;4960168;29;20816;-70
2022/04/09 12:22:10;;;;;;;5.83;2.80;;;14.20;88.70;;;;;;4959690;28;20476;-70
2022/04/09 12:24:51;;;;;;;5.03;2.60;;;14.30;85.50;;;;;;4959955;29;20440;-70
2022/04/09 12:27:18;;;;;;;3.47;3.00;;;14.40;84.20;;;;;;4962665;29;20444;-70
2022/04/09 12:29:50;;;;;;;6.17;2.50;;;14.20;82.90;;;;;;4962717;29;20861;-70
2022/04/09 12:32:20;;;;;;;4.90;3.10;;;14.10;85.50;;;;;;4963638;28;20486;-69
2022/04/09 12:34:54;;;;;;;5.20;2.70;;;14.20;85.70;;;;;;4960101;29;20927;-70
2022/04/09 12:37:21;;;;;;;4.10;2.77;;;14.60;89.40;;;;;;4958949;29;20455;-69
2022/04/09 12:39:49;;;;;;;6.80;2.87;;;14.60;80.60;;;;;;4958930;29;20456;-71
2022/04/09 12:42:16;;;;;;;6.00;2.60;;;14.90;88.40;;;;;;4959559;28;20479;-70
2022/04/09 12:44:43;;;;;;;7.53;2.60;;;14.90;79.20;;;;;;4960061;29;20452;-69
2022/04/09 12:47:10;;;;;;;3.43;2.80;;;14.90;78.80;;;;;;4959388;29;21005;-70
2022/04/09 12:49:38;;;;;;;2.90;2.27;;;14.80;79.30;;;;;;4959106;29;20460;-69
2022/04/09 12:52:07;;;;;;;3.90;2.47;;;14.50;81.20;;;;;;4958576;28;20880;-69
2022/04/09 12:54:34;;;;;;;5.47;2.60;;;14.00;79.40;;;;;;4960105;28;20522;-70
2022/04/09 12:57:08;;;;;;;6.10;3.03;;;13.50;79.00;;;;;;4959607;29;20467;-69
2022/04/09 12:59:34;;;;;;;6.10;2.97;;;13.20;84.00;;;;;;4959291;29;20448;-69
2022/04/09 13:02:02;;;;;;;3.90;2.60;;;13.20;86.20;;;;;;4959510;28;20495;-70
2022/04/09 13:04:29;;;;;;;3.17;2.30;;;13.50;86.70;;;;;;4958415;29;20502;-70
2022/04/09 13:06:56;;;;;;;3.83;2.30;;;13.60;81.20;;;;;;4958743;29;20507;-70
2022/04/09 13:09:22;;;;;;;6.50;2.23;;;13.60;85.50;;;;;;4958342;29;20856;-70
2022/04/09 13:11:49;;;;;;;4.07;2.10;;;13.80;84.00;;;;;;4958149;28;20534;-70
2022/04/09 13:14:17;;;;;;;5.63;2.93;;;13.90;81.30;;;;;;4958503;29;20475;-69
2022/04/09 13:16:44;;;;;;;2.90;2.27;;;14.00;82.20;;;;;;4958130;29;20456;-70
2022/04/09 13:19:11;;;;;;;5.90;2.60;;;14.10;82.90;;;;;;4957855;28;20460;-70
2022/04/09 13:21:38;;;;;;;4.10;2.50;;;14.10;83.20;;;;;;4957822;28;20480;-69
2022/04/09 13:24:06;;;;;;;3.53;2.30;;;14.20;83.30;;;;;;4957935;29;20942;-69
2022/04/09 13:26:33;;;;;;;4.60;2.40;;;14.30;85.10;;;;;;4957523;29;20460;-70
2022/04/09 13:28:59;;;;;;;4.07;2.37;;;14.50;87.90;;;;;;4957626;29;20820;-70
2022/04/09 13:31:31;;;;;;;3.97;2.60;;;14.50;84.90;;;;;;4957730;28;20487;-69
2022/04/09 13:33:59;;;;;;;5.37;2.20;;;14.60;78.40;;;;;;4957607;28;20504;-69
2022/04/09 13:36:26;;;;;;;5.13;2.10;;;14.30;79.30;;;;;;4957210;29;20464;-69
2022/04/09 13:38:53;;;;;;;5.77;2.10;;;14.30;81.50;;;;;;4957647;29;20464;-70
2022/04/09 13:41:22;;;;;;;3.20;2.13;;;14.30;81.90;;;;;;4957754;28;20483;-69
2022/04/09 13:43:48;;;;;;;3.03;2.13;;;14.40;82.70;;;;;;4957010;29;20456;-70
2022/04/09 13:46:15;;;;;;;3.47;1.97;;;14.60;79.80;;;;;;4957196;29;20533;-70
2022/04/09 13:48:43;;;;;;;6.70;2.17;;;14.60;74.10;;;;;;4957080;29;20463;-69
2022/04/09 13:51:12;;;;;;;4.73;2.47;;;14.10;75.90;;;;;;4956863;28;20939;-69
2022/04/09 13:53:39;;;;;;;5.33;2.27;;;13.90;79.80;;;;;;4956505;28;20476;-69
2022/04/09 13:56:06;;;;;;;4.57;2.57;;;13.70;77.50;;;;;;4956936;29;20455;-68
2022/04/09 13:58:32;;;;;;;6.40;2.67;;;13.20;79.30;;;;;;4956671;29;20459;-69
2022/04/09 14:00:59;;;;;;;8.27;3.00;;;12.70;81.80;;;;;;4956286;28;20487;-69
2022/04/09 14:03:26;;;;;;;4.93;2.13;;;12.70;86.10;;;;;;4956730;29;20455;-70
2022/04/09 14:05:54;;;;;;;3.23;1.80;;;12.80;85.20;;;;;;4956356;28;20456;-70
2022/04/09 14:08:21;;;;;;;2.67;1.93;;;13.10;82.90;;;;;;4956539;29;20455;-69
2022/04/09 14:10:47;;;;;;;3.30;2.03;;;13.30;80.70;;;;;;4956899;28;20487;-70
2022/04/09 14:13:14;;;;;;;4.63;2.20;;;13.50;79.60;;;;;;4956443;29;20480;-70
2022/04/09 14:15:42;;;;;;;2.57;2.37;;;13.50;77.80;;;;;;4956611;29;20476;-67
2022/04/09 14:18:09;;;;;;;5.80;2.50;;;13.20;76.60;;;;;;4957088;29;20464;-66
2022/04/09 14:20:36;;;;;;;2.53;1.80;;;13.00;80.70;;;;;;4956530;28;20483;-67
2022/04/09 14:23:04;;;;;;;45.63;41.03;;;12.80;79.70;;;;;;4956626;29;20455;-67
2022/04/09 14:25:31;;;;;;;13.40;12.00;;;12.70;81.90;;;;;;4956337;28;20471;-67
2022/04/09 14:27:58;;;;;;;8.20;7.03;;;12.70;83.70;;;;;;4956417;28;20460;-66
2022/04/09 14:30:25;;;;;;;5.93;3.50;;;12.70;81.10;;;;;;4956650;28;20459;-66
2022/04/09 14:32:52;;;;;;;5.47;3.10;;;12.70;81.40;;;;;;4956859;29;20466;-66
2022/04/09 14:35:19;;;;;;;3.63;2.23;;;12.60;78.30;;;;;;4956484;29;20490;-67
2022/04/09 14:37:47;;;;;;;2.30;1.70;;;12.70;74.30;;;;;;4956389;29;20459;-67
2022/04/09 14:40:15;;;;;;;4.90;2.50;;;12.70;74.20;;;;;;4956411;29;20567;-67
2022/04/09 14:42:42;;;;;;;4.27;2.20;;;12.90;78.90;;;;;;4956234;29;20460;-68
2022/04/09 14:45:14;;;;;;;6.10;2.30;;;13.30;89.00;;;;;;4956016;29;20518;-67
2022/04/09 14:47:41;;;;;;;4.17;2.20;;;13.50;87.10;;;;;;4955569;29;20931;-64
2022/04/09 14:50:09;;;;;;;5.73;2.90;;;13.80;82.20;;;;;;4955785;29;20456;-64
2022/04/09 14:52:36;;;;;;;6.30;2.20;;;13.90;75.40;;;;;;4955986;28;20527;-64
2022/04/09 14:55:03;;;;;;;3.20;2.00;;;14.10;73.70;;;;;;4956057;29;20482;-64
2022/04/09 14:57:31;;;;;;;4.03;2.33;;;14.40;77.30;;;;;;4955450;29;20456;-64
2022/04/09 14:59:58;;;;;;;9.37;2.87;;;14.50;75.90;;;;;;4955849;29;20466;-63
2022/04/09 15:02:26;;;;;;;4.77;2.10;;;14.60;73.60;;;;;;4955524;28;20491;-63
2022/04/09 15:04:52;;;;;;;4.30;1.83;;;14.30;71.10;;;;;;4956582;29;20451;-63
2022/04/09 15:07:21;;;;;;;7.80;2.77;;;13.90;73.00;;;;;;4955613;29;20456;-64
2022/04/09 15:09:48;;;;;;;3.57;2.20;;;13.50;76.40;;;;;;4955921;29;20456;-63
2022/04/09 15:12:15;;;;;;;4.90;1.90;;;13.30;74.00;;;;;;4955580;28;20872;-63
2022/04/09 15:14:43;;;;;;;3.77;1.87;;;13.10;70.70;;;;;;4955503;29;20479;-63
2022/04/09 15:17:10;;;;;;;3.67;1.70;;;13.20;73.20;;;;;;4955493;28;20508;-65
2022/04/09 15:19:37;;;;;;;3.07;1.67;;;13.30;74.80;;;;;;4958429;29;20455;-64
2022/04/09 15:22:05;;;;;;;2.70;1.90;;;13.20;72.10;;;;;;4959496;28;20471;-64
2022/04/09 15:24:32;;;;;;;4.10;1.83;;;12.90;69.10;;;;;;4959357;29;20475;-65
2022/04/09 15:26:59;;;;;;;2.07;1.60;;;12.70;71.60;;;;;;4959714;29;20462;-64
2022/04/09 15:29:26;;;;;;;3.53;2.13;;;12.40;69.90;;;;;;4959713;29;20444;-65
2022/04/09 15:31:54;;;;;;;4.20;1.90;;;12.20;72.30;;;;;;4959404;28;20479;-64
2022/04/09 15:34:20;;;;;;;3.40;1.67;;;12.10;74.50;;;;;;4958987;29;20487;-64
2022/04/09 15:36:47;;;;;;;1.90;1.77;;;11.90;70.10;;;;;;4959400;29;20532;-64
2022/04/09 15:39:14;;;;;;;6.50;1.80;;;11.90;74.30;;;;;;4962499;29;20482;-64
2022/04/09 15:41:41;;;;;;;1.73;1.63;;;12.00;73.00;;;;;;4960603;28;20487;-65
2022/04/09 15:44:08;;;;;;;1.93;1.80;;;11.90;74.80;;;;;;4961990;29;20462;-63
2022/04/09 15:46:35;;;;;;;3.17;2.40;;;11.90;74.30;;;;;;4966719;29;20460;-65
2022/04/09 15:49:03;;;;;;;3.43;1.80;;;11.70;74.10;;;;;;4966238;29;20455;-63
2022/04/09 15:51:30;;;;;;;3.03;2.07;;;11.60;77.30;;;;;;4966954;28;20475;-63
2022/04/09 15:53:57;;;;;;;4.40;3.07;;;11.50;77.10;;;;;;4963088;29;20482;-65
2022/04/09 15:56:24;;;;;;;2.70;2.23;;;11.50;75.80;;;;;;4959876;29;20467;-64
2022/04/09 15:58:50;;;;;;;5.40;2.10;;;11.40;73.80;;;;;;4959443;29;20455;-64
2022/04/09 16:01:17;;;;;;;8.67;6.97;;;11.20;73.50;;;;;;4963519;28;20491;-71
2022/04/09 16:03:44;;;;;;;4.97;3.93;;;11.20;74.80;;;;;;4961549;28;20949;-71
2022/04/09 16:06:12;;;;;;;4.57;2.57;;;11.20;74.80;;;;;;4960315;29;20462;-64
2022/04/09 16:08:39;;;;;;;3.10;2.10;;;11.10;74.40;;;;;;4961954;29;20483;-64
2022/04/09 16:11:07;;;;;;;4.77;2.30;;;11.20;76.10;;;;;;4963227;28;20479;-65
2022/04/09 16:13:33;;;;;;;5.07;2.60;;;11.20;76.30;;;;;;4962462;28;20458;-65
2022/04/09 16:16:00;;;;;;;2.87;1.83;;;11.30;77.70;;;;;;4961340;29;20448;-66
2022/04/09 16:18:27;;;;;;;4.10;1.83;;;11.40;76.00;;;;;;4961962;29;20483;-66
2022/04/09 16:20:54;;;;;;;6.30;2.70;;;11.50;77.20;;;;;;4962368;28;20479;-65
2022/04/09 16:23:22;;;;;;;4.03;2.03;;;11.60;75.80;;;;;;4963156;29;20456;-67
2022/04/09 16:25:49;;;;;;;2.90;2.03;;;11.70;78.00;;;;;;4964331;29;20455;-65
2022/04/09 16:28:16;;;;;;;1.87;1.60;;;11.90;95.30;;;;;;4965262;29;20883;-66
2022/04/09 16:30:43;;;;;;;5.23;2.57;;;12.10;90.40;;;;;;4964486;28;20471;-69
2022/04/09 16:33:09;;;;;;;4.33;1.77;;;12.10;81.40;;;;;;4962510;29;20482;-66
2022/04/09 16:35:36;;;;;;;4.10;2.47;;;12.00;76.50;;;;;;4959296;29;20476;-64
2022/04/09 16:38:05;;;;;;;3.87;2.17;;;11.80;76.70;;;;;;4960135;29;20824;-65
2022/04/09 16:40:34;;;;;;;2.90;1.70;;;11.80;75.90;;;;;;4958358;28;20518;-65
2022/04/09 16:43:00;;;;;;;3.80;1.90;;;11.60;76.40;;;;;;4957366;29;20821;-65
2022/04/09 16:45:28;;;;;;;4.03;1.70;;;11.40;76.90;;;;;;4957261;29;20460;-66
2022/04/09 16:47:54;;;;;;;2.60;1.57;;;11.30;77.60;;;;;;4957804;28;20981;-65
2022/04/09 16:50:21;;;;;;;3.03;2.13;;;11.10;74.70;;;;;;4957242;28;20528;-66